sensor_id;sensor_type;location;lat;lon;timestamp;temperature;humidity
26655;DHT22;14278;50.784;4.630;2023-05-07T00:00:46;16.40;99.90
26655;DHT22;14278;50.784;4.630;2023-05-07T00:03:12;16.30;99.90
26655;DHT22;14278;50.784;4.630;2023-05-07T00:05:39;16.50;99.90
26655;DHT22;14278;50.784;4.630;2023-05-07T00:08:05;16.70;99.90
26655;DHT22;14278;50.784;4.630;2023-05-07T00:10:31;16.70;99.90
26655;DHT22;14278;50.784;4.630;2023-05-07T00:12:56;16.70;99.90
26655;DHT22;14278;50.784;4.630;2023-05-07T00:15:22;16.80;99.90
26655;DHT22;14278;50.784;4.630;2023-05-07T00:17:48;16.70;99.90
26655;DHT22;14278;50.784;4.630;2023-05-07T00:20:14;16.70;99.90
26655;DHT22;14278;50.784;4.630;2023-05-07T00:22:40;16.80;99.90
26655;DHT22;14278;50.784;4.630;2023-05-07T00:25:06;16.80;99.90
26655;DHT22;14278;50.784;4.630;2023-05-07T00:27:32;17.00;99.90
26655;DHT22;14278;50.784;4.630;2023-05-07T00:29:57;17.00;99.90
26655;DHT22;14278;50.784;4.630;2023-05-07T00:32:23;16.80;99.90
26655;DHT22;14278;50.784;4.630;2023-05-07T00:34:49;16.70;99.90
26655;DHT22;14278;50.784;4.630;2023-05-07T00:37:16;16.90;99.90
26655;DHT22;14278;50.784;4.630;2023-05-07T00:39:42;16.80;99.90
26655;DHT22;14278;50.784;4.630;2023-05-07T00:42:08;16.80;99.90
26655;DHT22;14278;50.784;4.630;2023-05-07T00:44:34;16.90;99.90
26655;DHT22;14278;50.784;4.630;2023-05-07T00:47:02;17.00;99.90
26655;DHT22;14278;50.784;4.630;2023-05-07T00:49:42;17.00;99.90
26655;DHT22;14278;50.784;4.630;2023-05-07T00:52:11;17.00;99.90
26655;DHT22;14278;50.784;4.630;2023-05-07T00:54:38;16.90;99.90
26655;DHT22;14278;50.784;4.630;2023-05-07T00:57:06;16.60;99.90
26655;DHT22;14278;50.784;4.630;2023-05-07T00:59:32;16.30;99.90
26655;DHT22;14278;50.784;4.630;2023-05-07T01:01:59;16.20;99.90
26655;DHT22;14278;50.784;4.630;2023-05-07T01:04:25;16.00;99.90
26655;DHT22;14278;50.784;4.630;2023-05-07T01:06:51;15.90;99.90
26655;DHT22;14278;50.784;4.630;2023-05-07T01:09:19;15.90;99.90
26655;DHT22;14278;50.784;4.630;2023-05-07T01:11:46;15.90;99.90
26655;DHT22;14278;50.784;4.630;2023-05-07T01:14:12;16.00;99.90
26655;DHT22;14278;50.784;4.630;2023-05-07T01:16:38;16.00;99.90
26655;DHT22;14278;50.784;4.630;2023-05-07T01:19:11;15.60;99.90
26655;DHT22;14278;50.784;4.630;2023-05-07T01:21:47;15.40;99.90
26655;DHT22;14278;50.784;4.630;2023-05-07T01:24:14;15.80;99.90
26655;DHT22;14278;50.784;4.630;2023-05-07T01:26:41;16.00;99.90
26655;DHT22;14278;50.784;4.630;2023-05-07T01:29:07;16.20;99.90
26655;DHT22;14278;50.784;4.630;2023-05-07T01:31:34;16.20;99.90
26655;DHT22;14278;50.784;4.630;2023-05-07T01:34:01;15.90;99.90
26655;DHT22;14278;50.784;4.630;2023-05-07T01:36:29;15.70;99.90
26655;DHT22;14278;50.784;4.630;2023-05-07T01:38:55;15.60;99.90
26655;DHT22;14278;50.784;4.630;2023-05-07T01:41:23;15.70;99.90
26655;DHT22;14278;50.784;4.630;2023-05-07T01:43:50;15.80;99.90
26655;DHT22;14278;50.784;4.630;2023-05-07T01:46:18;16.20;99.90
26655;DHT22;14278;50.784;4.630;2023-05-07T01:48:45;16.30;99.90
26655;DHT22;14278;50.784;4.630;2023-05-07T01:51:11;16.50;99.90
26655;DHT22;14278;50.784;4.630;2023-05-07T01:53:38;16.50;99.90
26655;DHT22;14278;50.784;4.630;2023-05-07T01:56:06;16.70;99.90
26655;DHT22;14278;50.784;4.630;2023-05-07T01:58:32;16.40;99.90
26655;DHT22;14278;50.784;4.630;2023-05-07T02:00:58;15.60;99.90
26655;DHT22;14278;50.784;4.630;2023-05-07T02:03:24;15.50;99.90
26655;DHT22;14278;50.784;4.630;2023-05-07T02:05:49;15.80;99.90
26655;DHT22;14278;50.784;4.630;2023-05-07T02:08:24;16.10;99.90
26655;DHT22;14278;50.784;4.630;2023-05-07T02:10:50;16.50;99.90
26655;DHT22;14278;50.784;4.630;2023-05-07T02:13:16;16.30;99.90
26655;DHT22;14278;50.784;4.630;2023-05-07T02:15:42;16.20;99.90
26655;DHT22;14278;50.784;4.630;2023-05-07T02:18:10;16.40;99.90
26655;DHT22;14278;50.784;4.630;2023-05-07T02:20:35;16.30;99.90
26655;DHT22;14278;50.784;4.630;2023-05-07T02:23:01;15.90;99.90
26655;DHT22;14278;50.784;4.630;2023-05-07T02:25:27;15.50;99.90
26655;DHT22;14278;50.784;4.630;2023-05-07T02:27:53;15.40;99.90
26655;DHT22;14278;50.784;4.630;2023-05-07T02:30:19;15.40;99.90
26655;DHT22;14278;50.784;4.630;2023-05-07T02:32:46;15.40;99.90
26655;DHT22;14278;50.784;4.630;2023-05-07T02:35:12;15.20;99.90
26655;DHT22;14278;50.784;4.630;2023-05-07T02:37:38;15.10;99.90
26655;DHT22;14278;50.784;4.630;2023-05-07T02:40:04;15.20;99.90
26655;DHT22;14278;50.784;4.630;2023-05-07T02:42:30;15.20;99.90
26655;DHT22;14278;50.784;4.630;2023-05-07T02:44:56;15.50;99.90
26655;DHT22;14278;50.784;4.630;2023-05-07T02:47:21;15.80;99.90
26655;DHT22;14278;50.784;4.630;2023-05-07T02:49:47;15.90;99.90
26655;DHT22;14278;50.784;4.630;2023-05-07T02:52:13;15.80;99.90
26655;DHT22;14278;50.784;4.630;2023-05-07T02:54:39;15.50;99.90
26655;DHT22;14278;50.784;4.630;2023-05-07T02:57:05;15.40;99.90
26655;DHT22;14278;50.784;4.630;2023-05-07T02:59:30;15.40;99.90
26655;DHT22;14278;50.784;4.630;2023-05-07T03:01:56;15.50;99.90
26655;DHT22;14278;50.784;4.630;2023-05-07T03:04:22;15.70;99.90
26655;DHT22;14278;50.784;4.630;2023-05-07T03:06:48;15.80;99.90
26655;DHT22;14278;50.784;4.630;2023-05-07T03:09:17;15.70;99.90
26655;DHT22;14278;50.784;4.630;2023-05-07T03:11:42;15.60;99.90
26655;DHT22;14278;50.784;4.630;2023-05-07T03:14:08;15.50;99.90
26655;DHT22;14278;50.784;4.630;2023-05-07T03:16:34;15.60;99.90
26655;DHT22;14278;50.784;4.630;2023-05-07T03:19:00;15.80;99.90
26655;DHT22;14278;50.784;4.630;2023-05-07T03:21:26;15.90;99.90
26655;DHT22;14278;50.784;4.630;2023-05-07T03:23:52;15.80;99.90
26655;DHT22;14278;50.784;4.630;2023-05-07T03:26:18;15.70;99.90
26655;DHT22;14278;50.784;4.630;2023-05-07T03:28:44;15.40;99.90
26655;DHT22;14278;50.784;4.630;2023-05-07T03:31:10;15.50;99.90
26655;DHT22;14278;50.784;4.630;2023-05-07T03:33:49;15.70;99.90
26655;DHT22;14278;50.784;4.630;2023-05-07T03:36:15;15.90;99.90
26655;DHT22;14278;50.784;4.630;2023-05-07T03:38:41;16.00;99.90
26655;DHT22;14278;50.784;4.630;2023-05-07T03:41:06;16.00;99.90
26655;DHT22;14278;50.784;4.630;2023-05-07T03:43:32;15.70;99.90
26655;DHT22;14278;50.784;4.630;2023-05-07T03:45:58;15.70;99.90
26655;DHT22;14278;50.784;4.630;2023-05-07T03:48:24;15.40;99.90
26655;DHT22;14278;50.784;4.630;2023-05-07T03:50:50;15.40;99.90
26655;DHT22;14278;50.784;4.630;2023-05-07T03:53:15;15.40;99.90
26655;DHT22;14278;50.784;4.630;2023-05-07T03:55:41;15.40;99.90
26655;DHT22;14278;50.784;4.630;2023-05-07T03:58:07;15.60;99.90
26655;DHT22;14278;50.784;4.630;2023-05-07T04:00:33;16.30;99.90
26655;DHT22;14278;50.784;4.630;2023-05-07T04:03:02;16.00;99.90
26655;DHT22;14278;50.784;4.630;2023-05-07T04:05:29;15.70;99.90
26655;DHT22;14278;50.784;4.630;2023-05-07T04:07:55;15.80;99.90
26655;DHT22;14278;50.784;4.630;2023-05-07T04:10:20;15.90;99.90
26655;DHT22;14278;50.784;4.630;2023-05-07T04:12:46;16.00;99.90
26655;DHT22;14278;50.784;4.630;2023-05-07T04:15:12;15.80;99.90
26655;DHT22;14278;50.784;4.630;2023-05-07T04:17:38;16.00;99.90
26655;DHT22;14278;50.784;4.630;2023-05-07T04:20:04;15.80;99.90
26655;DHT22;14278;50.784;4.630;2023-05-07T04:22:32;15.80;99.90
26655;DHT22;14278;50.784;4.630;2023-05-07T04:24:58;15.40;99.90
26655;DHT22;14278;50.784;4.630;2023-05-07T04:27:24;15.30;99.90
26655;DHT22;14278;50.784;4.630;2023-05-07T04:29:50;15.50;99.90
26655;DHT22;14278;50.784;4.630;2023-05-07T04:32:17;15.90;99.90
26655;DHT22;14278;50.784;4.630;2023-05-07T04:34:43;16.00;99.90
26655;DHT22;14278;50.784;4.630;2023-05-07T04:37:08;15.80;99.90
26655;DHT22;14278;50.784;4.630;2023-05-07T04:39:34;15.50;99.90
26655;DHT22;14278;50.784;4.630;2023-05-07T04:42:00;15.70;99.90
26655;DHT22;14278;50.784;4.630;2023-05-07T04:44:26;16.10;99.90
26655;DHT22;14278;50.784;4.630;2023-05-07T04:46:52;16.10;99.90
26655;DHT22;14278;50.784;4.630;2023-05-07T04:49:18;15.90;99.90
26655;DHT22;14278;50.784;4.630;2023-05-07T04:51:44;15.80;99.90
26655;DHT22;14278;50.784;4.630;2023-05-07T04:54:10;16.00;99.90
26655;DHT22;14278;50.784;4.630;2023-05-07T04:56:35;16.10;99.90
26655;DHT22;14278;50.784;4.630;2023-05-07T04:59:01;15.80;99.90
26655;DHT22;14278;50.784;4.630;2023-05-07T05:01:27;15.80;99.90
26655;DHT22;14278;50.784;4.630;2023-05-07T05:03:53;15.50;99.90
26655;DHT22;14278;50.784;4.630;2023-05-07T05:06:19;15.40;99.90
26655;DHT22;14278;50.784;4.630;2023-05-07T05:08:44;15.90;99.90
26655;DHT22;14278;50.784;4.630;2023-05-07T05:11:10;16.30;99.90
26655;DHT22;14278;50.784;4.630;2023-05-07T05:13:36;16.80;99.90
26655;DHT22;14278;50.784;4.630;2023-05-07T05:16:02;17.10;99.90
26655;DHT22;14278;50.784;4.630;2023-05-07T05:18:28;17.20;99.90
26655;DHT22;14278;50.784;4.630;2023-05-07T05:20:53;17.40;99.90
26655;DHT22;14278;50.784;4.630;2023-05-07T05:23:19;17.60;99.90
26655;DHT22;14278;50.784;4.630;2023-05-07T05:25:45;17.80;99.90
26655;DHT22;14278;50.784;4.630;2023-05-07T05:28:11;17.80;99.90
26655;DHT22;14278;50.784;4.630;2023-05-07T05:30:37;17.10;99.90
26655;DHT22;14278;50.784;4.630;2023-05-07T05:33:03;17.00;99.90
26655;DHT22;14278;50.784;4.630;2023-05-07T05:35:29;17.30;99.90
26655;DHT22;14278;50.784;4.630;2023-05-07T05:37:55;17.60;99.90
26655;DHT22;14278;50.784;4.630;2023-05-07T05:40:21;18.00;99.90
26655;DHT22;14278;50.784;4.630;2023-05-07T05:42:47;18.10;99.90
26655;DHT22;14278;50.784;4.630;2023-05-07T05:45:13;18.10;99.90
26655;DHT22;14278;50.784;4.630;2023-05-07T05:47:39;18.30;99.90
26655;DHT22;14278;50.784;4.630;2023-05-07T05:50:06;17.90;99.90
26655;DHT22;14278;50.784;4.630;2023-05-07T05:52:32;17.60;99.90
26655;DHT22;14278;50.784;4.630;2023-05-07T05:54:58;17.10;99.90
26655;DHT22;14278;50.784;4.630;2023-05-07T05:57:24;16.90;99.90
26655;DHT22;14278;50.784;4.630;2023-05-07T05:59:50;16.80;99.90
26655;DHT22;14278;50.784;4.630;2023-05-07T06:02:16;16.60;99.90
26655;DHT22;14278;50.784;4.630;2023-05-07T06:04:41;17.00;99.90
26655;DHT22;14278;50.784;4.630;2023-05-07T06:07:08;17.30;99.90
26655;DHT22;14278;50.784;4.630;2023-05-07T06:09:33;17.60;99.90
26655;DHT22;14278;50.784;4.630;2023-05-07T06:11:59;17.90;99.90
26655;DHT22;14278;50.784;4.630;2023-05-07T06:14:25;18.10;99.90
26655;DHT22;14278;50.784;4.630;2023-05-07T06:16:51;17.80;99.90
26655;DHT22;14278;50.784;4.630;2023-05-07T06:19:17;17.40;99.90
26655;DHT22;14278;50.784;4.630;2023-05-07T06:21:48;17.50;99.90
26655;DHT22;14278;50.784;4.630;2023-05-07T06:24:14;17.80;99.90
26655;DHT22;14278;50.784;4.630;2023-05-07T06:26:40;17.00;99.90
26655;DHT22;14278;50.784;4.630;2023-05-07T06:29:06;16.60;99.90
26655;DHT22;14278;50.784;4.630;2023-05-07T06:31:32;17.00;99.90
26655;DHT22;14278;50.784;4.630;2023-05-07T06:33:57;17.20;99.90
26655;DHT22;14278;50.784;4.630;2023-05-07T06:36:24;17.60;99.90
26655;DHT22;14278;50.784;4.630;2023-05-07T06:38:50;18.00;99.90
26655;DHT22;14278;50.784;4.630;2023-05-07T06:41:16;17.80;99.90
26655;DHT22;14278;50.784;4.630;2023-05-07T06:43:41;17.60;99.90
26655;DHT22;14278;50.784;4.630;2023-05-07T06:46:07;17.70;99.90
26655;DHT22;14278;50.784;4.630;2023-05-07T06:48:33;17.70;99.90
26655;DHT22;14278;50.784;4.630;2023-05-07T06:50:59;18.00;99.90
26655;DHT22;14278;50.784;4.630;2023-05-07T06:53:25;17.60;99.90
26655;DHT22;14278;50.784;4.630;2023-05-07T06:55:51;17.70;99.90
26655;DHT22;14278;50.784;4.630;2023-05-07T06:58:17;18.10;99.90
26655;DHT22;14278;50.784;4.630;2023-05-07T07:00:43;18.50;99.90
26655;DHT22;14278;50.784;4.630;2023-05-07T07:03:09;19.10;99.90
26655;DHT22;14278;50.784;4.630;2023-05-07T07:05:35;19.50;99.90
26655;DHT22;14278;50.784;4.630;2023-05-07T07:08:01;19.70;99.90
26655;DHT22;14278;50.784;4.630;2023-05-07T07:10:27;19.60;99.90
26655;DHT22;14278;50.784;4.630;2023-05-07T07:12:52;19.40;99.90
26655;DHT22;14278;50.784;4.630;2023-05-07T07:15:19;19.60;99.90
26655;DHT22;14278;50.784;4.630;2023-05-07T07:17:46;20.00;99.90
26655;DHT22;14278;50.784;4.630;2023-05-07T07:20:13;20.20;99.90
26655;DHT22;14278;50.784;4.630;2023-05-07T07:22:38;20.20;99.90
26655;DHT22;14278;50.784;4.630;2023-05-07T07:25:04;20.50;99.90
26655;DHT22;14278;50.784;4.630;2023-05-07T07:27:30;20.40;99.90
26655;DHT22;14278;50.784;4.630;2023-05-07T07:29:56;20.10;99.90
26655;DHT22;14278;50.784;4.630;2023-05-07T07:32:22;20.30;99.90
26655;DHT22;14278;50.784;4.630;2023-05-07T07:34:48;20.90;99.90
26655;DHT22;14278;50.784;4.630;2023-05-07T07:37:13;20.90;99.90
26655;DHT22;14278;50.784;4.630;2023-05-07T07:39:39;21.10;99.90
26655;DHT22;14278;50.784;4.630;2023-05-07T07:42:05;21.50;99.90
26655;DHT22;14278;50.784;4.630;2023-05-07T07:44:31;21.60;99.90
26655;DHT22;14278;50.784;4.630;2023-05-07T07:46:56;21.20;99.90
26655;DHT22;14278;50.784;4.630;2023-05-07T07:49:22;20.50;99.90
26655;DHT22;14278;50.784;4.630;2023-05-07T07:51:48;19.90;99.90
26655;DHT22;14278;50.784;4.630;2023-05-07T07:54:14;20.20;99.90
26655;DHT22;14278;50.784;4.630;2023-05-07T07:56:40;20.00;99.90
26655;DHT22;14278;50.784;4.630;2023-05-07T07:59:05;20.10;99.90
26655;DHT22;14278;50.784;4.630;2023-05-07T08:01:31;20.30;99.90
26655;DHT22;14278;50.784;4.630;2023-05-07T08:03:57;20.40;99.90
26655;DHT22;14278;50.784;4.630;2023-05-07T08:06:28;19.70;99.90
26655;DHT22;14278;50.784;4.630;2023-05-07T08:08:54;19.90;99.90
26655;DHT22;14278;50.784;4.630;2023-05-07T08:11:20;19.70;99.90
26655;DHT22;14278;50.784;4.630;2023-05-07T08:13:47;20.10;99.90
26655;DHT22;14278;50.784;4.630;2023-05-07T08:16:13;20.20;99.90
26655;DHT22;14278;50.784;4.630;2023-05-07T08:18:39;20.30;99.90
26655;DHT22;14278;50.784;4.630;2023-05-07T08:21:05;20.00;99.90
26655;DHT22;14278;50.784;4.630;2023-05-07T08:23:31;20.00;99.90
26655;DHT22;14278;50.784;4.630;2023-05-07T08:25:57;20.40;99.90
26655;DHT22;14278;50.784;4.630;2023-05-07T08:28:23;20.20;99.90
26655;DHT22;14278;50.784;4.630;2023-05-07T08:30:50;20.30;99.90
26655;DHT22;14278;50.784;4.630;2023-05-07T08:33:16;20.40;99.90
26655;DHT22;14278;50.784;4.630;2023-05-07T08:35:42;20.70;99.90
26655;DHT22;14278;50.784;4.630;2023-05-07T08:38:08;20.20;99.90
26655;DHT22;14278;50.784;4.630;2023-05-07T08:40:37;20.60;99.90
26655;DHT22;14278;50.784;4.630;2023-05-07T08:43:06;20.40;99.90
26655;DHT22;14278;50.784;4.630;2023-05-07T08:45:34;20.30;99.90
26655;DHT22;14278;50.784;4.630;2023-05-07T08:48:02;20.10;99.90
26655;DHT22;14278;50.784;4.630;2023-05-07T08:50:29;20.70;99.90
26655;DHT22;14278;50.784;4.630;2023-05-07T08:52:55;20.90;99.90
26655;DHT22;14278;50.784;4.630;2023-05-07T08:55:22;20.80;99.90
26655;DHT22;14278;50.784;4.630;2023-05-07T08:57:48;20.70;99.90
26655;DHT22;14278;50.784;4.630;2023-05-07T09:00:14;20.40;99.90
26655;DHT22;14278;50.784;4.630;2023-05-07T09:02:40;20.30;99.90
26655;DHT22;14278;50.784;4.630;2023-05-07T09:05:06;20.70;99.90
26655;DHT22;14278;50.784;4.630;2023-05-07T09:07:32;20.70;99.90
26655;DHT22;14278;50.784;4.630;2023-05-07T09:09:58;21.10;99.90
26655;DHT22;14278;50.784;4.630;2023-05-07T09:12:24;21.30;99.90
26655;DHT22;14278;50.784;4.630;2023-05-07T09:14:50;20.90;99.90
26655;DHT22;14278;50.784;4.630;2023-05-07T09:17:16;20.90;99.90
26655;DHT22;14278;50.784;4.630;2023-05-07T09:19:44;21.20;99.90
26655;DHT22;14278;50.784;4.630;2023-05-07T09:22:11;21.30;99.90
26655;DHT22;14278;50.784;4.630;2023-05-07T09:24:37;20.90;99.90
26655;DHT22;14278;50.784;4.630;2023-05-07T09:27:07;21.20;99.90
26655;DHT22;14278;50.784;4.630;2023-05-07T09:29:35;21.60;99.90
26655;DHT22;14278;50.784;4.630;2023-05-07T09:32:02;21.60;99.90
26655;DHT22;14278;50.784;4.630;2023-05-07T09:34:29;21.00;99.90
26655;DHT22;14278;50.784;4.630;2023-05-07T09:36:56;21.20;99.90
26655;DHT22;14278;50.784;4.630;2023-05-07T09:39:23;21.20;99.90
26655;DHT22;14278;50.784;4.630;2023-05-07T09:41:49;21.00;99.90
26655;DHT22;14278;50.784;4.630;2023-05-07T09:44:16;21.30;99.90
26655;DHT22;14278;50.784;4.630;2023-05-07T09:46:43;21.30;99.90
26655;DHT22;14278;50.784;4.630;2023-05-07T09:49:21;21.30;99.90
26655;DHT22;14278;50.784;4.630;2023-05-07T09:51:52;21.30;99.90
26655;DHT22;14278;50.784;4.630;2023-05-07T09:54:18;21.30;99.90
26655;DHT22;14278;50.784;4.630;2023-05-07T09:56:52;21.40;99.90
26655;DHT22;14278;50.784;4.630;2023-05-07T09:59:18;21.50;99.90
26655;DHT22;14278;50.784;4.630;2023-05-07T10:01:45;21.40;99.90
26655;DHT22;14278;50.784;4.630;2023-05-07T10:04:12;21.60;99.90
26655;DHT22;14278;50.784;4.630;2023-05-07T10:06:38;21.60;99.90
26655;DHT22;14278;50.784;4.630;2023-05-07T10:09:04;21.40;99.90
26655;DHT22;14278;50.784;4.630;2023-05-07T10:11:37;20.90;99.90
26655;DHT22;14278;50.784;4.630;2023-05-07T10:14:03;21.00;99.90
26655;DHT22;14278;50.784;4.630;2023-05-07T10:16:32;20.70;99.90
26655;DHT22;14278;50.784;4.630;2023-05-07T10:19:03;20.90;99.90
26655;DHT22;14278;50.784;4.630;2023-05-07T10:21:29;20.60;99.90
26655;DHT22;14278;50.784;4.630;2023-05-07T10:24:10;20.60;99.90
26655;DHT22;14278;50.784;4.630;2023-05-07T10:26:44;21.30;99.90
26655;DHT22;14278;50.784;4.630;2023-05-07T10:32:40;21.50;99.90
26655;DHT22;14278;50.784;4.630;2023-05-07T10:35:24;20.70;99.90
26655;DHT22;14278;50.784;4.630;2023-05-07T10:37:51;20.60;99.90
26655;DHT22;14278;50.784;4.630;2023-05-07T10:40:17;20.90;99.90
26655;DHT22;14278;50.784;4.630;2023-05-07T10:42:57;21.00;99.90
26655;DHT22;14278;50.784;4.630;2023-05-07T10:45:25;20.70;99.90
26655;DHT22;14278;50.784;4.630;2023-05-07T10:48:11;21.20;99.90
26655;DHT22;14278;50.784;4.630;2023-05-07T10:50:38;21.20;99.90
26655;DHT22;14278;50.784;4.630;2023-05-07T10:53:24;21.00;99.90
26655;DHT22;14278;50.784;4.630;2023-05-07T10:58:43;22.10;99.90
26655;DHT22;14278;50.784;4.630;2023-05-07T11:01:09;21.80;99.90
26655;DHT22;14278;50.784;4.630;2023-05-07T11:04:29;22.00;99.90
26655;DHT22;14278;50.784;4.630;2023-05-07T11:09:53;22.90;99.90
26655;DHT22;14278;50.784;4.630;2023-05-07T11:17:31;20.70;99.90
26655;DHT22;14278;50.784;4.630;2023-05-07T11:20:00;21.20;99.90
26655;DHT22;14278;50.784;4.630;2023-05-07T11:25:05;22.80;99.90
26655;DHT22;14278;50.784;4.630;2023-05-07T11:27:32;23.30;99.90
26655;DHT22;14278;50.784;4.630;2023-05-07T11:29:58;23.40;99.90
26655;DHT22;14278;50.784;4.630;2023-05-07T11:32:25;23.10;99.90
26655;DHT22;14278;50.784;4.630;2023-05-07T11:34:55;23.30;99.90
26655;DHT22;14278;50.784;4.630;2023-05-07T11:37:21;23.20;99.90
26655;DHT22;14278;50.784;4.630;2023-05-07T11:39:48;22.50;99.90
26655;DHT22;14278;50.784;4.630;2023-05-07T11:42:34;22.60;99.90
26655;DHT22;14278;50.784;4.630;2023-05-07T11:45:01;20.90;99.90
26655;DHT22;14278;50.784;4.630;2023-05-07T11:47:30;21.40;99.90
26655;DHT22;14278;50.784;4.630;2023-05-07T11:49:56;22.20;99.90
26655;DHT22;14278;50.784;4.630;2023-05-07T11:52:23;22.60;99.90
26655;DHT22;14278;50.784;4.630;2023-05-07T11:54:54;23.30;99.90
26655;DHT22;14278;50.784;4.630;2023-05-07T11:57:23;23.10;99.90
26655;DHT22;14278;50.784;4.630;2023-05-07T11:59:53;23.50;99.90
26655;DHT22;14278;50.784;4.630;2023-05-07T12:02:19;23.30;99.90
26655;DHT22;14278;50.784;4.630;2023-05-07T12:04:45;23.40;99.90
26655;DHT22;14278;50.784;4.630;2023-05-07T12:07:17;23.10;99.90
26655;DHT22;14278;50.784;4.630;2023-05-07T12:09:45;23.20;99.90
26655;DHT22;14278;50.784;4.630;2023-05-07T12:12:11;22.70;99.90
26655;DHT22;14278;50.784;4.630;2023-05-07T12:14:41;22.50;99.90
26655;DHT22;14278;50.784;4.630;2023-05-07T12:17:08;22.00;99.90
26655;DHT22;14278;50.784;4.630;2023-05-07T12:19:35;21.50;99.90
26655;DHT22;14278;50.784;4.630;2023-05-07T12:22:02;20.80;99.90
26655;DHT22;14278;50.784;4.630;2023-05-07T12:24:28;20.40;99.90
26655;DHT22;14278;50.784;4.630;2023-05-07T12:26:54;20.40;99.90
26655;DHT22;14278;50.784;4.630;2023-05-07T12:29:23;20.40;99.90
26655;DHT22;14278;50.784;4.630;2023-05-07T12:31:50;20.10;99.90
26655;DHT22;14278;50.784;4.630;2023-05-07T12:34:16;20.00;99.90
26655;DHT22;14278;50.784;4.630;2023-05-07T12:36:41;20.40;99.90
26655;DHT22;14278;50.784;4.630;2023-05-07T12:39:08;20.90;99.90
26655;DHT22;14278;50.784;4.630;2023-05-07T12:41:56;20.70;99.90
26655;DHT22;14278;50.784;4.630;2023-05-07T12:44:23;20.40;99.90
26655;DHT22;14278;50.784;4.630;2023-05-07T12:46:49;21.10;99.90
26655;DHT22;14278;50.784;4.630;2023-05-07T12:49:15;21.40;99.90
26655;DHT22;14278;50.784;4.630;2023-05-07T12:51:41;20.70;99.90
26655;DHT22;14278;50.784;4.630;2023-05-07T12:54:07;21.20;99.90
26655;DHT22;14278;50.784;4.630;2023-05-07T12:56:36;21.70;99.90
26655;DHT22;14278;50.784;4.630;2023-05-07T12:59:02;21.90;99.90
26655;DHT22;14278;50.784;4.630;2023-05-07T13:01:31;22.10;99.90
26655;DHT22;14278;50.784;4.630;2023-05-07T13:04:03;21.50;99.90
26655;DHT22;14278;50.784;4.630;2023-05-07T13:06:30;21.50;99.90
26655;DHT22;14278;50.784;4.630;2023-05-07T13:08:56;21.60;99.90
26655;DHT22;14278;50.784;4.630;2023-05-07T13:11:22;22.50;99.90
26655;DHT22;14278;50.784;4.630;2023-05-07T13:13:48;23.00;99.90
26655;DHT22;14278;50.784;4.630;2023-05-07T13:16:14;23.10;99.90
26655;DHT22;14278;50.784;4.630;2023-05-07T13:18:40;22.60;99.90
26655;DHT22;14278;50.784;4.630;2023-05-07T13:21:06;22.90;99.90
26655;DHT22;14278;50.784;4.630;2023-05-07T13:23:32;23.10;99.90
26655;DHT22;14278;50.784;4.630;2023-05-07T13:25:58;23.30;99.90
26655;DHT22;14278;50.784;4.630;2023-05-07T13:28:24;23.50;99.90
26655;DHT22;14278;50.784;4.630;2023-05-07T13:30:51;23.20;99.90
26655;DHT22;14278;50.784;4.630;2023-05-07T13:33:17;22.90;99.90
26655;DHT22;14278;50.784;4.630;2023-05-07T13:35:44;22.70;99.90
26655;DHT22;14278;50.784;4.630;2023-05-07T13:38:09;22.60;99.90
26655;DHT22;14278;50.784;4.630;2023-05-07T13:40:35;22.40;99.90
26655;DHT22;14278;50.784;4.630;2023-05-07T13:43:01;22.70;99.90
26655;DHT22;14278;50.784;4.630;2023-05-07T13:45:28;22.80;99.90
26655;DHT22;14278;50.784;4.630;2023-05-07T13:47:55;22.70;99.90
26655;DHT22;14278;50.784;4.630;2023-05-07T13:50:21;22.70;99.90
26655;DHT22;14278;50.784;4.630;2023-05-07T13:52:47;22.70;99.90
26655;DHT22;14278;50.784;4.630;2023-05-07T13:55:20;22.60;99.90
26655;DHT22;14278;50.784;4.630;2023-05-07T13:57:47;22.60;99.90
26655;DHT22;14278;50.784;4.630;2023-05-07T14:00:13;22.80;99.90
26655;DHT22;14278;50.784;4.630;2023-05-07T14:02:40;22.80;99.90
26655;DHT22;14278;50.784;4.630;2023-05-07T14:05:06;22.80;99.90
26655;DHT22;14278;50.784;4.630;2023-05-07T14:07:32;22.60;99.90
26655;DHT22;14278;50.784;4.630;2023-05-07T14:09:58;22.20;99.90
26655;DHT22;14278;50.784;4.630;2023-05-07T14:12:24;22.20;99.90
26655;DHT22;14278;50.784;4.630;2023-05-07T14:14:50;22.30;99.90
26655;DHT22;14278;50.784;4.630;2023-05-07T14:17:19;22.10;99.90
26655;DHT22;14278;50.784;4.630;2023-05-07T14:19:45;22.20;99.90
26655;DHT22;14278;50.784;4.630;2023-05-07T14:22:13;22.10;99.90
26655;DHT22;14278;50.784;4.630;2023-05-07T14:24:39;22.20;99.90
26655;DHT22;14278;50.784;4.630;2023-05-07T14:27:05;22.00;99.90
26655;DHT22;14278;50.784;4.630;2023-05-07T14:29:31;21.60;99.90
26655;DHT22;14278;50.784;4.630;2023-05-07T14:31:57;22.00;99.90
26655;DHT22;14278;50.784;4.630;2023-05-07T14:34:23;21.80;99.90
26655;DHT22;14278;50.784;4.630;2023-05-07T14:36:48;21.80;99.90
26655;DHT22;14278;50.784;4.630;2023-05-07T14:39:14;22.00;99.90
26655;DHT22;14278;50.784;4.630;2023-05-07T14:41:40;22.10;99.90
26655;DHT22;14278;50.784;4.630;2023-05-07T14:44:06;22.20;99.90
26655;DHT22;14278;50.784;4.630;2023-05-07T14:46:31;22.20;99.90
26655;DHT22;14278;50.784;4.630;2023-05-07T14:48:57;22.40;99.90
26655;DHT22;14278;50.784;4.630;2023-05-07T14:51:23;22.20;99.90
26655;DHT22;14278;50.784;4.630;2023-05-07T14:53:50;21.90;99.90
26655;DHT22;14278;50.784;4.630;2023-05-07T14:56:16;22.00;99.90
26655;DHT22;14278;50.784;4.630;2023-05-07T14:58:43;22.00;99.90
26655;DHT22;14278;50.784;4.630;2023-05-07T15:01:09;22.20;99.90
26655;DHT22;14278;50.784;4.630;2023-05-07T15:03:35;22.40;99.90
26655;DHT22;14278;50.784;4.630;2023-05-07T15:06:02;22.30;99.90
26655;DHT22;14278;50.784;4.630;2023-05-07T15:08:28;22.50;99.90
26655;DHT22;14278;50.784;4.630;2023-05-07T15:10:54;22.40;99.90
26655;DHT22;14278;50.784;4.630;2023-05-07T15:13:20;22.50;99.90
26655;DHT22;14278;50.784;4.630;2023-05-07T15:15:46;22.60;99.90
26655;DHT22;14278;50.784;4.630;2023-05-07T15:18:12;22.60;99.90
26655;DHT22;14278;50.784;4.630;2023-05-07T15:20:38;22.90;99.90
26655;DHT22;14278;50.784;4.630;2023-05-07T15:23:06;22.70;99.90
26655;DHT22;14278;50.784;4.630;2023-05-07T15:25:35;22.80;99.90
26655;DHT22;14278;50.784;4.630;2023-05-07T15:28:01;22.20;99.90
26655;DHT22;14278;50.784;4.630;2023-05-07T15:30:27;22.20;99.90
26655;DHT22;14278;50.784;4.630;2023-05-07T15:32:53;22.20;99.90
26655;DHT22;14278;50.784;4.630;2023-05-07T15:35:19;21.90;99.90
26655;DHT22;14278;50.784;4.630;2023-05-07T15:37:50;21.00;99.90
26655;DHT22;14278;50.784;4.630;2023-05-07T15:40:16;20.80;99.90
26655;DHT22;14278;50.784;4.630;2023-05-07T15:42:44;20.70;99.90
26655;DHT22;14278;50.784;4.630;2023-05-07T15:45:10;20.40;99.90